createdAt,value
2023-09-06T00:02:28.450Z,14.16
2023-09-06T00:05:14.232Z,13.79
2023-09-06T00:07:59.734Z,13.96
2023-09-06T00:10:45.695Z,14.27
2023-09-06T00:13:32.181Z,13.62
2023-09-06T00:16:17.566Z,14.08
2023-09-06T00:19:03.372Z,14.17
2023-09-06T00:21:48.852Z,13.73
2023-09-06T00:24:34.912Z,13.63
2023-09-06T00:27:20.258Z,13.83
2023-09-06T00:30:06.412Z,14.05
2023-09-06T00:32:52.433Z,13.61
2023-09-06T00:35:39.453Z,13.88
2023-09-06T00:38:25.060Z,13.39
2023-09-06T00:41:11.327Z,13.91
2023-09-06T00:43:56.598Z,13.86
2023-09-06T00:46:43.436Z,13.24
2023-09-06T00:49:28.922Z,13.64
2023-09-06T00:52:15.011Z,13.28
2023-09-06T00:55:01.016Z,13.18
2023-09-06T00:57:46.907Z,13.03
2023-09-06T01:00:32.122Z,13.55
2023-09-06T01:03:18.866Z,13.14
2023-09-06T01:06:33.261Z,13.60
2023-09-06T01:09:19.309Z,13.07
2023-09-06T01:12:04.669Z,12.61
2023-09-06T01:14:50.030Z,13.57
2023-09-06T01:17:37.495Z,12.71
2023-09-06T01:20:32.172Z,12.83
2023-09-06T01:23:29.743Z,13.46
2023-09-06T01:26:17.473Z,13.13
2023-09-06T01:29:03.565Z,12.89
2023-09-06T01:31:48.839Z,13.20
2023-09-06T01:34:34.251Z,12.70
2023-09-06T01:37:19.690Z,12.92
2023-09-06T01:40:08.905Z,13.09
2023-09-06T01:42:54.376Z,13.61
2023-09-06T01:45:44.474Z,13.26
2023-09-06T01:48:29.945Z,13.17
2023-09-06T01:51:15.516Z,12.65
2023-09-06T01:54:00.794Z,12.07
2023-09-06T01:56:46.588Z,12.50
2023-09-06T01:59:32.544Z,12.65
2023-09-06T02:02:17.988Z,12.95
2023-09-06T02:05:03.040Z,12.62
2023-09-06T02:07:48.588Z,12.31
2023-09-06T02:10:34.207Z,12.24
2023-09-06T02:13:19.786Z,12.56
2023-09-06T02:16:05.351Z,12.33
2023-09-06T02:18:50.943Z,12.67
2023-09-06T02:21:36.390Z,12.30
2023-09-06T02:24:22.315Z,12.57
2023-09-06T02:27:07.509Z,12.21
2023-09-06T02:29:53.101Z,12.42
2023-09-06T02:32:38.551Z,12.03
2023-09-06T02:35:24.031Z,12.33
2023-09-06T02:38:10.766Z,12.48
2023-09-06T02:40:56.094Z,11.90
2023-09-06T02:43:41.537Z,12.20
2023-09-06T02:46:26.901Z,12.15
2023-09-06T02:49:12.397Z,12.30
2023-09-06T02:51:58.017Z,11.94
2023-09-06T02:54:43.395Z,11.96
2023-09-06T02:57:29.130Z,12.10
2023-09-06T03:00:14.667Z,12.31
2023-09-06T03:03:01.153Z,11.72
2023-09-06T03:05:47.201Z,11.33
2023-09-06T03:08:36.030Z,11.65
2023-09-06T03:11:21.393Z,11.89
2023-09-06T03:14:07.655Z,11.67
2023-09-06T03:16:53.291Z,11.58
2023-09-06T03:19:39.396Z,11.93
2023-09-06T03:22:24.747Z,11.95
2023-09-06T03:25:10.855Z,11.17
2023-09-06T03:27:57.016Z,11.76
2023-09-06T03:30:43.385Z,11.52
2023-09-06T03:33:29.617Z,11.98
2023-09-06T03:36:16.153Z,11.13
2023-09-06T03:39:02.259Z,11.94
2023-09-06T03:41:47.818Z,10.95
2023-09-06T03:44:33.230Z,11.92
2023-09-06T03:47:18.723Z,11.33
2023-09-06T03:50:04.251Z,11.84
2023-09-06T03:52:49.471Z,11.42
2023-09-06T03:55:37.485Z,11.65
2023-09-06T03:58:25.228Z,11.93
2023-09-06T04:01:11.644Z,11.61
2023-09-06T04:03:57.271Z,11.82
2023-09-06T04:06:42.518Z,11.81
2023-09-06T04:09:28.993Z,11.31
2023-09-06T04:12:14.201Z,11.29
2023-09-06T04:14:59.959Z,11.34
2023-09-06T04:17:45.798Z,11.43
2023-09-06T04:20:34.107Z,11.49
2023-09-06T04:23:21.017Z,11.38
2023-09-06T04:26:12.954Z,11.56
2023-09-06T04:28:58.204Z,11.03
2023-09-06T04:31:43.747Z,11.36
2023-09-06T04:34:30.746Z,11.38
2023-09-06T04:37:16.111Z,11.42
2023-09-06T04:40:01.756Z,11.11
2023-09-06T04:42:50.140Z,10.84
2023-09-06T04:45:36.878Z,10.55
2023-09-06T04:48:22.920Z,10.36
2023-09-06T04:51:13.142Z,10.75
2023-09-06T04:53:59.197Z,10.53
2023-09-06T04:56:52.422Z,9.99
2023-09-06T04:59:37.983Z,11.29
2023-09-06T05:02:23.489Z,10.38
2023-09-06T05:05:09.070Z,10.84
2023-09-06T05:07:54.620Z,11.02
2023-09-06T05:10:41.089Z,11.51
2023-09-06T05:13:27.753Z,11.13
2023-09-06T05:16:17.273Z,11.20
2023-09-06T05:19:02.841Z,10.91
2023-09-06T05:21:53.388Z,11.50
2023-09-06T05:24:41.018Z,11.15
2023-09-06T05:27:26.636Z,11.23
2023-09-06T05:30:12.534Z,11.27
2023-09-06T05:32:58.871Z,11.14
2023-09-06T05:35:45.178Z,11.23
2023-09-06T05:38:33.040Z,11.39
2023-09-06T05:41:20.856Z,11.17
2023-09-06T05:44:06.833Z,11.38
2023-09-06T05:46:52.438Z,11.40
2023-09-06T05:49:38.448Z,11.54
2023-09-06T05:52:23.800Z,11.64
2023-09-06T05:55:09.948Z,11.85
2023-09-06T05:57:55.759Z,12.23
2023-09-06T06:00:42.458Z,12.50
2023-09-06T06:03:27.702Z,12.56
2023-09-06T06:06:13.144Z,13.02
2023-09-06T06:08:58.586Z,13.12
2023-09-06T06:11:44.045Z,12.39
2023-09-06T06:14:29.386Z,13.81
2023-09-06T06:17:15.153Z,13.37
2023-09-06T06:20:00.705Z,13.80
2023-09-06T06:22:46.197Z,13.83
2023-09-06T06:25:31.714Z,13.92
2023-09-06T06:28:17.546Z,13.47
2023-09-06T06:31:02.799Z,14.43
2023-09-06T06:33:48.099Z,13.74
2023-09-06T06:36:33.591Z,14.23
2023-09-06T06:39:19.123Z,14.39
2023-09-06T06:42:04.716Z,14.01
2023-09-06T06:44:52.971Z,14.17
2023-09-06T06:47:38.724Z,14.93
2023-09-06T06:50:24.758Z,14.81
2023-09-06T06:53:10.002Z,15.05
2023-09-06T06:55:55.709Z,14.97
2023-09-06T06:58:41.127Z,14.39
2023-09-06T07:01:26.855Z,15.49
2023-09-06T07:04:12.433Z,15.06
2023-09-06T07:06:57.747Z,15.48
2023-09-06T07:09:43.048Z,15.39
2023-09-06T07:12:28.304Z,15.29
2023-09-06T07:15:13.973Z,15.69
2023-09-06T07:17:59.576Z,15.84
2023-09-06T07:20:45.105Z,15.66
2023-09-06T07:23:30.848Z,15.92
2023-09-06T07:26:16.348Z,15.93
2023-09-06T07:29:01.956Z,15.75
2023-09-06T07:31:47.289Z,15.67
2023-09-06T07:34:32.830Z,16.20
2023-09-06T07:37:18.212Z,15.70
2023-09-06T07:40:04.048Z,15.91
2023-09-06T07:42:49.312Z,15.58
2023-09-06T07:45:35.177Z,16.12
2023-09-06T07:48:21.059Z,15.84
2023-09-06T07:51:07.024Z,15.59
2023-09-06T07:53:52.548Z,16.44
2023-09-06T07:56:40.511Z,16.35
2023-09-06T07:59:26.309Z,16.14
2023-09-06T08:02:11.738Z,16.72
2023-09-06T08:04:57.265Z,16.46
2023-09-06T08:07:42.877Z,16.75
2023-09-06T08:10:28.286Z,16.20
2023-09-06T08:13:13.980Z,16.48
2023-09-06T08:15:59.184Z,16.55
2023-09-06T08:18:44.927Z,16.39
2023-09-06T08:21:30.866Z,16.55
2023-09-06T08:24:16.278Z,16.64
2023-09-06T08:27:01.894Z,16.81
2023-09-06T08:29:47.457Z,16.67
2023-09-06T08:32:33.063Z,16.57
2023-09-06T08:35:19.026Z,17.10
2023-09-06T08:38:05.222Z,17.27
2023-09-06T08:40:50.606Z,17.72
2023-09-06T08:43:37.435Z,17.22
2023-09-06T08:46:30.937Z,17.73
2023-09-06T08:49:16.814Z,17.80
2023-09-06T08:52:03.106Z,17.80
2023-09-06T08:54:48.733Z,17.97
2023-09-06T08:57:35.527Z,18.24
2023-09-06T09:00:20.764Z,18.62
2023-09-06T09:03:06.917Z,18.59
2023-09-06T09:05:58.307Z,18.88
2023-09-06T09:08:44.022Z,19.15
2023-09-06T09:11:29.776Z,20.10
2023-09-06T09:14:24.104Z,19.93
2023-09-06T09:17:09.420Z,19.78
2023-09-06T09:19:57.027Z,19.94
2023-09-06T09:22:42.308Z,20.04
2023-09-06T09:25:27.961Z,19.95
2023-09-06T09:28:15.838Z,21.11
2023-09-06T09:31:02.319Z,21.34
2023-09-06T09:33:52.181Z,20.78
2023-09-06T09:36:39.346Z,21.55
2023-09-06T09:39:28.135Z,21.79
2023-09-06T09:42:13.745Z,21.61
2023-09-06T09:45:02.984Z,21.58
2023-09-06T09:50:39.167Z,21.19
2023-09-06T09:53:27.228Z,21.91
2023-09-06T09:56:12.413Z,21.60
2023-09-06T09:59:00.639Z,21.92
2023-09-06T10:01:45.877Z,21.61
2023-09-06T10:04:35.916Z,21.94
2023-09-06T10:07:29.716Z,21.87
2023-09-06T10:10:25.433Z,22.96
2023-09-06T10:13:10.963Z,22.47
2023-09-06T10:15:57.285Z,22.30
2023-09-06T10:18:43.303Z,22.12
2023-09-06T10:21:28.937Z,22.87
2023-09-06T10:24:23.455Z,22.96
2023-09-06T10:27:12.540Z,22.49
2023-09-06T10:30:04.627Z,23.17
2023-09-06T10:32:50.932Z,22.18
2023-09-06T10:35:43.150Z,22.96
2023-09-06T10:38:29.084Z,22.69
2023-09-06T10:41:14.474Z,22.46
2023-09-06T10:44:00.229Z,23.52
2023-09-06T10:46:45.679Z,22.94
2023-09-06T10:49:32.912Z,22.73
2023-09-06T10:52:42.001Z,23.02
2023-09-06T10:55:28.459Z,22.94
2023-09-06T10:58:13.743Z,22.20
2023-09-06T11:01:14.759Z,23.26
2023-09-06T11:04:02.664Z,23.11
2023-09-06T11:06:54.254Z,22.78
2023-09-06T11:09:47.104Z,23.20
2023-09-06T11:12:32.636Z,23.42
2023-09-06T11:15:18.062Z,23.39
2023-09-06T11:18:04.151Z,23.17
2023-09-06T11:20:50.958Z,24.05
2023-09-06T11:23:51.339Z,23.40
2023-09-06T11:26:36.632Z,23.56
2023-09-06T11:29:27.569Z,24.04
2023-09-06T11:32:13.231Z,23.65
2023-09-06T11:34:58.528Z,23.89
2023-09-06T11:37:49.594Z,23.67
2023-09-06T11:40:36.409Z,24.41
2023-09-06T11:43:22.024Z,24.67
2023-09-06T11:46:08.839Z,24.63
2023-09-06T11:48:54.634Z,24.45
2023-09-06T11:51:40.382Z,23.94
2023-09-06T11:54:25.704Z,24.09
2023-09-06T11:57:18.670Z,24.21
2023-09-06T12:00:09.414Z,24.38
2023-09-06T12:03:00.934Z,24.85
2023-09-06T12:05:51.649Z,24.63
2023-09-06T12:08:37.895Z,24.87
2023-09-06T12:11:23.348Z,24.42
2023-09-06T12:14:13.693Z,23.74
2023-09-06T12:16:59.485Z,24.11
2023-09-06T12:19:44.737Z,24.78
2023-09-06T12:22:29.986Z,24.11
2023-09-06T12:25:16.295Z,24.69
2023-09-06T12:28:01.603Z,23.72
2023-09-06T12:30:47.278Z,24.46
2023-09-06T12:33:32.638Z,24.72
2023-09-06T12:36:19.002Z,25.22
2023-09-06T12:39:04.564Z,24.07
2023-09-06T12:41:49.909Z,25.19
2023-09-06T12:44:35.478Z,24.51
2023-09-06T12:47:21.068Z,25.05
2023-09-06T12:50:07.889Z,24.60
2023-09-06T12:52:53.921Z,25.29
2023-09-06T12:55:39.079Z,24.75
2023-09-06T12:58:24.894Z,24.38
2023-09-06T13:01:10.278Z,24.72
2023-09-06T13:03:56.021Z,24.89
2023-09-06T13:06:41.421Z,24.81
2023-09-06T13:09:27.052Z,24.68
2023-09-06T13:12:12.555Z,24.49
2023-09-06T13:14:59.072Z,24.66
2023-09-06T13:17:44.899Z,24.92
2023-09-06T13:20:30.368Z,24.81
2023-09-06T13:23:16.205Z,24.88
2023-09-06T13:26:01.925Z,24.66
2023-09-06T13:28:47.187Z,24.32
2023-09-06T13:31:33.286Z,24.85
2023-09-06T13:34:18.987Z,24.54
2023-09-06T13:37:05.153Z,24.76
2023-09-06T13:39:50.401Z,24.65
2023-09-06T13:42:36.037Z,24.54
2023-09-06T13:45:21.734Z,24.59
2023-09-06T13:48:07.442Z,24.85
2023-09-06T13:50:52.484Z,24.78
2023-09-06T13:53:38.303Z,24.75
2023-09-06T13:56:23.545Z,25.15
2023-09-06T13:59:08.875Z,25.32
2023-09-06T14:01:54.561Z,25.22
2023-09-06T14:04:39.761Z,25.22
2023-09-06T14:07:25.059Z,25.34
2023-09-06T14:10:11.016Z,25.42
2023-09-06T14:12:56.405Z,25.39
2023-09-06T14:15:41.922Z,25.20
2023-09-06T14:18:27.908Z,24.94
2023-09-06T14:21:13.619Z,24.33
2023-09-06T14:23:59.102Z,24.24
2023-09-06T14:26:45.006Z,24.87
2023-09-06T14:29:32.156Z,24.43
2023-09-06T14:32:17.785Z,24.91
2023-09-06T14:35:03.652Z,25.16
2023-09-06T14:37:49.004Z,25.00
2023-09-06T14:40:45.007Z,24.58
2023-09-06T14:43:30.818Z,24.87
2023-09-06T14:46:16.747Z,24.67
2023-09-06T14:49:02.111Z,24.86
2023-09-06T14:51:47.675Z,25.02
2023-09-06T14:54:33.055Z,24.22
2023-09-06T14:57:18.338Z,25.00
2023-09-06T15:00:04.069Z,25.19
2023-09-06T15:02:50.631Z,25.13
2023-09-06T15:05:36.400Z,24.89
2023-09-06T15:08:21.879Z,24.89
2023-09-06T15:11:10.582Z,24.29
2023-09-06T15:13:56.146Z,24.88
2023-09-06T15:16:41.930Z,24.71
2023-09-06T15:19:27.060Z,24.27
2023-09-06T15:22:17.361Z,24.53
2023-09-06T15:25:12.490Z,24.77
2023-09-06T15:27:58.008Z,24.81
2023-09-06T15:30:44.612Z,25.13
2023-09-06T15:33:30.326Z,24.31
2023-09-06T15:36:15.808Z,24.73
2023-09-06T15:39:01.475Z,24.75
2023-09-06T15:41:46.589Z,24.37
2023-09-06T15:44:32.122Z,24.22
2023-09-06T15:47:17.626Z,24.43
2023-09-06T15:50:03.407Z,24.30
2023-09-06T15:52:49.731Z,24.21
2023-09-06T15:55:34.986Z,24.34
2023-09-06T15:58:20.611Z,24.13
2023-09-06T16:01:06.113Z,24.23
2023-09-06T16:03:51.908Z,23.70
2023-09-06T16:06:37.512Z,23.78
2023-09-06T16:09:23.010Z,22.96
2023-09-06T16:12:08.984Z,23.39
2023-09-06T16:14:54.861Z,23.85
2023-09-06T16:17:40.507Z,23.99
2023-09-06T16:20:26.076Z,23.29
2023-09-06T16:23:12.008Z,22.37
2023-09-06T16:25:57.483Z,23.55
2023-09-06T16:28:43.076Z,22.44
2023-09-06T16:31:29.842Z,22.41
2023-09-06T16:34:15.285Z,23.11
2023-09-06T16:37:00.746Z,22.47
2023-09-06T16:39:46.539Z,22.42
2023-09-06T16:42:32.108Z,22.27
2023-09-06T16:45:18.313Z,22.97
2023-09-06T16:48:04.653Z,22.51
2023-09-06T16:50:50.214Z,22.58
2023-09-06T16:53:35.788Z,22.10
2023-09-06T16:56:21.504Z,21.87
2023-09-06T16:59:06.816Z,22.04
2023-09-06T17:01:52.752Z,21.95
2023-09-06T17:04:38.070Z,21.21
2023-09-06T17:07:23.621Z,22.12
2023-09-06T17:10:09.807Z,21.11
2023-09-06T17:12:55.468Z,20.87
2023-09-06T17:15:41.284Z,21.13
2023-09-06T17:18:26.502Z,20.95
2023-09-06T17:21:12.084Z,21.06
2023-09-06T17:24:03.930Z,20.77
2023-09-06T17:26:49.727Z,20.12
2023-09-06T17:29:35.287Z,20.26
2023-09-06T17:32:20.606Z,20.60
2023-09-06T17:35:07.034Z,20.30
2023-09-06T17:37:52.334Z,20.48
2023-09-06T17:40:45.385Z,20.07
2023-09-06T17:43:51.045Z,16.45
2023-09-06T17:46:36.905Z,20.22
2023-09-06T17:49:22.540Z,20.29
2023-09-06T17:52:08.666Z,20.36
2023-09-06T17:54:54.256Z,20.33
2023-09-06T17:57:39.905Z,20.63
2023-09-06T18:00:27.732Z,19.62
2023-09-06T18:03:13.899Z,19.66
2023-09-06T18:05:59.592Z,20.47
2023-09-06T18:08:45.126Z,20.30
2023-09-06T18:11:30.419Z,20.32
2023-09-06T18:14:18.091Z,20.66
2023-09-06T18:17:03.703Z,20.33
2023-09-06T18:19:49.104Z,19.94
2023-09-06T18:22:34.760Z,19.69
2023-09-06T18:25:20.376Z,20.08
2023-09-06T18:28:06.547Z,19.52
2023-09-06T18:30:52.269Z,17.94
2023-09-06T18:33:38.413Z,19.34
2023-09-06T18:36:23.861Z,19.09
2023-09-06T18:39:09.235Z,19.37
2023-09-06T18:41:54.806Z,19.28
2023-09-06T18:44:40.139Z,18.80
2023-09-06T18:47:25.931Z,19.02
2023-09-06T18:50:15.072Z,19.31
2023-09-06T18:53:02.236Z,18.85
2023-09-06T18:55:48.252Z,18.87
2023-09-06T18:58:33.964Z,18.83
2023-09-06T19:01:19.428Z,18.65
2023-09-06T19:04:05.294Z,18.65
2023-09-06T19:06:50.974Z,18.93
2023-09-06T19:09:36.608Z,19.37
2023-09-06T19:12:22.312Z,19.05
2023-09-06T19:15:12.970Z,18.70
2023-09-06T19:17:58.766Z,18.46
2023-09-06T19:20:44.715Z,18.41
2023-09-06T19:23:30.375Z,18.40
2023-09-06T19:26:15.922Z,17.55
2023-09-06T19:29:01.213Z,18.28
2023-09-06T19:31:46.762Z,18.00
2023-09-06T19:34:32.234Z,18.48
2023-09-06T19:37:18.251Z,18.18
2023-09-06T19:40:04.655Z,18.73
2023-09-06T19:42:50.062Z,18.31
2023-09-06T19:45:44.043Z,18.53
2023-09-06T19:48:29.813Z,18.40
2023-09-06T19:51:15.402Z,17.71
2023-09-06T19:54:00.877Z,18.19
2023-09-06T19:56:46.286Z,18.01
2023-09-06T19:59:32.564Z,18.52
2023-09-06T20:02:18.185Z,18.16
2023-09-06T20:05:04.061Z,18.11
2023-09-06T20:07:49.397Z,17.98
2023-09-06T20:10:40.892Z,17.87
2023-09-06T20:13:26.221Z,18.22
2023-09-06T20:16:11.795Z,18.19
2023-09-06T20:18:57.719Z,17.93
2023-09-06T20:21:42.954Z,17.67
2023-09-06T20:24:28.256Z,17.54
2023-09-06T20:27:14.627Z,17.43
2023-09-06T20:30:00.814Z,17.36
2023-09-06T20:32:46.379Z,16.90
2023-09-06T20:35:31.642Z,17.36
2023-09-06T20:38:17.344Z,17.09
2023-09-06T20:41:05.146Z,17.23
2023-09-06T20:43:51.309Z,17.22
2023-09-06T20:46:37.183Z,17.32
2023-09-06T20:49:24.165Z,17.20
2023-09-06T20:52:09.929Z,16.98
2023-09-06T20:54:55.777Z,17.37
2023-09-06T20:57:41.109Z,17.12
2023-09-06T21:00:26.509Z,17.17
2023-09-06T21:03:12.069Z,17.23
2023-09-06T21:05:58.652Z,17.19
2023-09-06T21:08:44.563Z,17.39
2023-09-06T21:11:30.343Z,17.05
2023-09-06T21:14:18.066Z,17.12
2023-09-06T21:17:05.623Z,16.89
2023-09-06T21:19:50.979Z,16.70
2023-09-06T21:22:36.411Z,17.06
2023-09-06T21:25:21.633Z,16.83
2023-09-06T21:28:07.646Z,16.75
2023-09-06T21:30:53.124Z,16.71
2023-09-06T21:33:38.546Z,16.68
2023-09-06T21:36:24.312Z,16.57
2023-09-06T21:39:09.928Z,16.40
2023-09-06T21:41:55.108Z,16.51
2023-09-06T21:44:40.505Z,16.59
2023-09-06T21:47:25.958Z,16.41
2023-09-06T21:50:11.369Z,16.56
2023-09-06T21:52:56.575Z,16.46
2023-09-06T21:55:42.196Z,16.29
2023-09-06T21:58:28.129Z,16.21
2023-09-06T22:01:32.357Z,16.07
2023-09-06T22:04:36.353Z,15.96
2023-09-06T22:07:40.664Z,15.98
2023-09-06T22:10:45.366Z,15.73
2023-09-06T22:13:49.491Z,15.80
2023-09-06T22:16:34.810Z,15.79
2023-09-06T22:19:22.381Z,15.79
2023-09-06T22:22:08.035Z,15.63
2023-09-06T22:24:53.714Z,15.57
2023-09-06T22:27:39.124Z,15.80
2023-09-06T22:30:24.882Z,15.67
2023-09-06T22:33:10.139Z,15.56
2023-09-06T22:35:55.628Z,15.55
2023-09-06T22:38:40.982Z,15.59
2023-09-06T22:41:26.793Z,15.37
2023-09-06T22:44:12.288Z,15.30
2023-09-06T22:46:57.767Z,15.13
2023-09-06T22:49:43.389Z,15.20
2023-09-06T22:52:29.033Z,15.09
2023-09-06T22:55:14.486Z,15.11
2023-09-06T22:57:59.870Z,15.17
2023-09-06T23:00:45.659Z,15.04
2023-09-06T23:03:31.449Z,14.96
2023-09-06T23:06:17.747Z,15.00
2023-09-06T23:09:03.512Z,14.96
2023-09-06T23:11:50.493Z,14.87
2023-09-06T23:14:35.813Z,14.99
2023-09-06T23:17:21.519Z,14.61
2023-09-06T23:20:07.875Z,14.58
2023-09-06T23:22:54.415Z,14.73
2023-09-06T23:25:40.014Z,14.66
2023-09-06T23:28:25.179Z,14.75
2023-09-06T23:31:11.166Z,14.70
2023-09-06T23:33:56.932Z,14.58
2023-09-06T23:36:42.351Z,14.47
2023-09-06T23:39:27.847Z,14.65
2023-09-06T23:42:13.247Z,14.42
2023-09-06T23:44:58.843Z,14.66
2023-09-06T23:47:44.366Z,14.64
2023-09-06T23:50:29.781Z,14.64
2023-09-06T23:53:15.115Z,14.72
2023-09-06T23:56:04.076Z,14.02
2023-09-06T23:58:49.947Z,14.30
